Time;durP1;ratioP1;P1;durP2;ratioP2;P2;SDS_P1;SDS_P2;PMS_P1;PMS_P2;Temp;Humidity;BMP_temperature;BMP_pressure;BME280_temperature;BME280_humidity;BME280_pressure;Samples;Min_cycle;Max_cycle;Signal;HPM_P1;HPM_P2
2021/05/04 00:00:13;;;;;;;2.03;1.25;;;;;;;19.38;31.68;99836.00;4170970;28;20792;-50
2021/05/04 00:02:13;;;;;;;2.90;1.42;;;;;;;19.44;31.51;99831.97;4172460;28;20120;-51
2021/05/04 00:04:14;;;;;;;4.20;1.63;;;;;;;19.42;31.41;99817.59;4170067;28;20531;-50
2021/05/04 00:06:14;;;;;;;1.77;1.38;;;;;;;19.40;31.45;99805.97;4172550;28;20458;-50
2021/05/04 00:08:15;;;;;;;3.30;1.48;;;;;;;19.39;31.61;99798.78;4169196;28;20037;-49
2021/05/04 00:10:15;;;;;;;3.08;1.65;;;;;;;19.36;31.78;99796.63;4168030;28;20063;-48
2021/05/04 00:12:15;;;;;;;4.22;1.27;;;;;;;19.32;31.68;99779.75;4170199;28;20036;-49
2021/05/04 00:14:16;;;;;;;2.22;1.38;;;;;;;19.32;31.50;99778.94;4164618;28;20041;-49
2021/05/04 00:16:16;;;;;;;4.13;1.67;;;;;;;19.32;31.55;99765.06;4172523;28;20132;-49
2021/05/04 00:18:17;;;;;;;2.05;1.30;;;;;;;19.26;31.68;99750.47;4169083;28;20626;-49
2021/05/04 00:20:17;;;;;;;1.45;1.35;;;;;;;19.23;31.52;99746.38;4174430;28;20037;-49
2021/05/04 00:22:18;;;;;;;2.60;1.52;;;;;;;19.17;31.49;99728.19;4172733;28;20040;-51
2021/05/04 00:24:18;;;;;;;2.13;1.30;;;;;;;19.17;31.47;99714.34;4167997;28;20045;-50
2021/05/04 00:26:18;;;;;;;2.25;1.50;;;;;;;19.18;31.71;99717.91;4167302;28;20132;-52
2021/05/04 00:28:19;;;;;;;2.00;1.60;;;;;;;19.19;31.52;99709.28;4174789;28;20083;-54
2021/05/04 00:30:19;;;;;;;1.80;1.65;;;;;;;19.12;31.77;99700.53;4170715;28;20056;-49
2021/05/04 00:32:20;;;;;;;2.88;1.52;;;;;;;19.16;31.73;99696.03;4166103;28;20112;-52
2021/05/04 00:34:20;;;;;;;1.80;1.40;;;;;;;19.17;31.71;99674.66;4169709;28;20441;-49
2021/05/04 00:36:21;;;;;;;2.75;1.75;;;;;;;19.07;31.40;99670.94;4175232;28;20048;-49
2021/05/04 00:38:22;;;;;;;3.22;1.45;;;;;;;19.00;31.69;99647.53;4151649;28;20407;-50
2021/05/04 00:40:23;;;;;;;2.28;1.55;;;;;;;19.06;31.54;99647.13;4168129;28;20352;-50
2021/05/04 00:42:25;;;;;;;2.25;1.60;;;;;;;19.02;31.52;99643.31;4172737;28;20086;-53
2021/05/04 00:44:25;;;;;;;2.53;1.70;;;;;;;18.99;31.57;99620.94;4172491;28;20368;-48
2021/05/04 00:46:26;;;;;;;1.58;1.35;;;;;;;18.96;31.70;99627.09;4164537;28;20049;-50
2021/05/04 00:48:28;;;;;;;2.10;1.30;;;;;;;18.99;31.75;99616.19;4164485;28;20461;-51
2021/05/04 00:50:28;;;;;;;1.77;1.35;;;;;;;18.96;31.81;99614.06;4168791;28;20037;-52
2021/05/04 00:52:29;;;;;;;1.42;1.33;;;;;;;18.93;31.67;99608.31;4173258;28;20404;-48
2021/05/04 00:54:29;;;;;;;2.42;1.30;;;;;;;18.93;31.71;99605.53;4177097;28;20037;-49
2021/05/04 00:56:31;;;;;;;2.50;1.40;;;;;;;18.93;31.77;99592.50;4170244;28;20067;-50
2021/05/04 00:58:34;;;;;;;1.58;1.25;;;;;;;18.87;31.84;99589.00;4166013;28;20032;-48
2021/05/04 01:00:36;;;;;;;3.97;1.20;;;;;;;18.87;32.04;99566.00;4171547;28;20047;-51
2021/05/04 01:02:36;;;;;;;1.60;1.50;;;;;;;18.88;31.78;99576.78;4168906;28;20163;-51
2021/05/04 01:04:38;;;;;;;2.30;1.30;;;;;;;18.88;31.73;99565.69;4174788;28;20071;-52
2021/05/04 01:06:39;;;;;;;3.28;1.20;;;;;;;18.86;31.77;99576.28;4170578;28;20443;-49
2021/05/04 01:08:39;;;;;;;3.03;1.45;;;;;;;18.83;31.81;99565.81;4167427;28;20033;-51
2021/05/04 01:10:40;;;;;;;1.38;1.15;;;;;;;18.78;31.87;99543.72;4171718;28;20048;-49
2021/05/04 01:12:41;;;;;;;1.35;0.98;;;;;;;18.83;31.91;99540.84;4164660;28;20137;-52
2021/05/04 01:14:41;;;;;;;1.67;1.10;;;;;;;18.76;31.89;99543.22;4174604;28;20033;-49
2021/05/04 01:16:43;;;;;;;2.35;1.13;;;;;;;18.77;31.89;99530.16;4173915;28;20033;-48
2021/05/04 01:18:43;;;;;;;2.03;1.20;;;;;;;18.77;32.00;99525.47;4171962;28;20128;-48
2021/05/04 01:20:49;;;;;;;1.45;1.35;;;;;;;18.75;31.88;99516.63;4173151;28;20033;-52
2021/05/04 01:22:49;;;;;;;2.47;1.30;;;;;;;18.76;31.78;99501.63;4168875;28;20403;-49
2021/05/04 01:24:49;;;;;;;2.45;1.25;;;;;;;18.75;31.98;99500.00;4170239;28;20021;-51
2021/05/04 01:26:50;;;;;;;2.92;1.27;;;;;;;18.67;31.89;99487.69;4167870;28;20029;-49
2021/05/04 01:28:50;;;;;;;1.52;0.80;;;;;;;18.67;32.07;99481.34;4170017;28;20036;-50
2021/05/04 01:30:51;;;;;;;1.13;0.90;;;;;;;18.65;31.89;99461.44;4170967;28;20033;-51
2021/05/04 01:32:51;;;;;;;3.92;1.60;;;;;;;18.66;32.15;99463.06;4166872;28;20036;-53
2021/05/04 01:34:52;;;;;;;2.63;0.98;;;;;;;18.59;31.99;99451.59;4170680;28;20512;-50
2021/05/04 01:36:52;;;;;;;2.63;0.95;;;;;;;18.62;32.08;99459.28;4140007;28;20030;-48
2021/05/04 01:38:52;;;;;;;1.75;1.05;;;;;;;18.60;31.70;99450.44;4173179;28;20541;-49
2021/05/04 01:40:53;;;;;;;1.30;1.00;;;;;;;18.59;31.98;99443.28;4168506;28;20033;-50
2021/05/04 01:42:53;;;;;;;1.63;1.00;;;;;;;18.54;31.98;99438.66;4169226;28;20037;-50
2021/05/04 01:44:54;;;;;;;1.10;0.80;;;;;;;18.49;32.18;99425.75;4170150;28;20048;-51
2021/05/04 01:46:54;;;;;;;2.83;1.17;;;;;;;18.53;32.19;99426.75;4171864;28;20029;-48
2021/05/04 01:48:55;;;;;;;1.67;0.93;;;;;;;18.51;32.34;99420.72;4172018;28;20032;-48
2021/05/04 01:50:55;;;;;;;1.88;1.05;;;;;;;18.48;32.14;99428.84;4174456;28;20799;-49
2021/05/04 01:52:56;;;;;;;1.33;1.17;;;;;;;18.44;32.13;99416.72;4174159;28;20029;-51
2021/05/04 01:54:56;;;;;;;1.63;1.00;;;;;;;18.39;31.99;99403.81;4174632;28;20498;-52
2021/05/04 01:56:58;;;;;;;1.63;0.98;;;;;;;18.43;32.15;99393.75;4179714;28;20110;-50
2021/05/04 01:59:02;;;;;;;1.17;1.08;;;;;;;18.35;32.20;99398.06;4170792;28;20032;-53
2021/05/04 02:01:03;;;;;;;1.65;0.82;;;;;;;18.40;32.22;99374.97;4177866;28;20144;-52
2021/05/04 02:03:03;;;;;;;3.22;1.02;;;;;;;18.40;32.02;99380.53;4156207;28;20049;-53
2021/05/04 02:05:05;;;;;;;1.35;1.05;;;;;;;18.38;32.01;99373.66;4176179;28;20266;-51
2021/05/04 02:07:06;;;;;;;1.77;1.23;;;;;;;18.38;32.03;99357.84;4174595;28;20467;-51
2021/05/04 02:09:07;;;;;;;0.57;0.57;;;;;;;18.29;32.29;99366.06;4171839;28;20036;-50
2021/05/04 02:11:08;;;;;;;3.13;0.77;;;;;;;18.33;32.13;99360.72;4175406;28;20510;-54
2021/05/04 02:13:08;;;;;;;1.27;1.00;;;;;;;18.29;32.13;99362.44;4172411;28;20029;-50
2021/05/04 02:15:10;;;;;;;1.15;1.05;;;;;;;18.29;32.23;99362.44;4172612;28;20033;-51
2021/05/04 02:17:11;;;;;;;1.58;1.20;;;;;;;18.34;32.21;99345.75;4183552;28;20819;-49
2021/05/04 02:19:11;;;;;;;3.33;1.10;;;;;;;18.21;32.26;99349.34;4171528;28;20057;-54
2021/05/04 02:21:11;;;;;;;1.38;1.00;;;;;;;18.14;32.28;99335.94;4173351;28;20036;-51
2021/05/04 02:23:12;;;;;;;1.40;0.93;;;;;;;18.26;32.40;99329.81;4168728;28;20033;-49
2021/05/04 02:25:13;;;;;;;1.05;1.05;;;;;;;18.26;32.08;99327.91;4175520;28;20036;-51
2021/05/04 02:27:13;;;;;;;1.27;0.88;;;;;;;18.24;32.18;99310.75;4175136;28;20044;-52
2021/05/04 02:29:14;;;;;;;1.20;1.15;;;;;;;18.21;32.23;99293.94;4172693;28;20542;-51
2021/05/04 02:31:15;;;;;;;1.40;1.30;;;;;;;18.26;32.12;99305.75;4175606;28;20033;-52
2021/05/04 02:33:15;;;;;;;1.45;1.10;;;;;;;18.17;32.13;99291.00;4176139;28;20041;-52
2021/05/04 02:35:16;;;;;;;1.33;1.08;;;;;;;18.25;32.22;99293.00;4174023;28;20052;-51
2021/05/04 02:37:16;;;;;;;1.67;0.80;;;;;;;18.26;32.12;99285.50;4177144;28;20044;-52
2021/05/04 02:39:16;;;;;;;1.15;1.05;;;;;;;18.22;32.37;99273.44;4174389;28;20037;-51
2021/05/04 02:41:17;;;;;;;0.80;0.70;;;;;;;18.16;32.32;99259.69;4171634;28;20033;-49
2021/05/04 02:43:17;;;;;;;1.63;1.52;;;;;;;18.22;32.04;99267.91;4174406;28;20029;-51
2021/05/04 02:45:18;;;;;;;1.17;1.10;;;;;;;18.22;32.11;99271.47;4173990;28;20033;-49
2021/05/04 02:47:18;;;;;;;1.40;0.90;;;;;;;18.18;32.15;99264.91;4177569;28;20044;-50
2021/05/04 02:49:19;;;;;;;1.42;0.60;;;;;;;18.22;32.01;99259.59;4176113;28;20029;-51
2021/05/04 02:51:20;;;;;;;1.10;1.00;;;;;;;18.16;32.16;99254.16;4176848;28;20031;-50
2021/05/04 02:53:20;;;;;;;0.88;0.88;;;;;;;18.13;32.10;99245.66;4174406;28;20029;-48
2021/05/04 02:55:22;;;;;;;1.52;1.20;;;;;;;18.18;32.28;99232.53;4180439;28;20422;-50
2021/05/04 02:57:22;;;;;;;0.75;0.75;;;;;;;18.16;32.10;99247.81;4178689;28;20498;-50
2021/05/04 02:59:23;;;;;;;1.13;0.80;;;;;;;18.11;32.05;99245.97;4172823;28;20040;-48
2021/05/04 03:01:23;;;;;;;0.80;0.80;;;;;;;18.07;32.24;99228.34;4175041;28;20083;-48
2021/05/04 03:03:24;;;;;;;1.00;0.80;;;;;;;17.99;32.35;99232.69;4178142;28;20395;-52
2021/05/04 03:05:25;;;;;;;0.63;0.52;;;;;;;18.09;32.06;99217.81;4182885;28;20105;-54
2021/05/04 03:07:25;;;;;;;0.77;0.77;;;;;;;18.11;31.96;99209.97;4175064;28;20061;-51
2021/05/04 03:09:25;;;;;;;2.05;0.73;;;;;;;18.10;32.16;99215.84;4184818;28;20028;-50
2021/05/04 03:11:26;;;;;;;0.93;0.73;;;;;;;18.05;32.18;99194.63;4173554;28;20033;-50
2021/05/04 03:13:28;;;;;;;1.20;0.70;;;;;;;18.06;32.17;99204.56;4177261;28;20735;-51
2021/05/04 03:15:28;;;;;;;1.27;1.17;;;;;;;17.94;32.33;99190.47;4188023;28;20040;-50
2021/05/04 03:17:29;;;;;;;0.80;0.60;;;;;;;17.95;32.42;99189.31;4177278;28;20041;-50
2021/05/04 03:19:30;;;;;;;2.15;0.65;;;;;;;17.87;32.27;99174.28;4182510;28;20040;-53
2021/05/04 03:21:30;;;;;;;0.93;0.85;;;;;;;17.88;32.30;99177.88;4177131;28;20051;-52
2021/05/04 03:23:31;;;;;;;0.70;0.70;;;;;;;17.89;32.14;99155.44;4177270;28;20033;-51
2021/05/04 03:25:32;;;;;;;0.70;0.70;;;;;;;18.00;32.48;99156.81;4186173;28;20095;-50
2021/05/04 03:27:32;;;;;;;2.13;0.90;;;;;;;17.82;32.04;99166.91;4175581;28;20426;-52
2021/05/04 03:29:33;;;;;;;0.70;0.70;;;;;;;17.90;32.20;99161.78;4180225;28;20087;-54
2021/05/04 03:31:33;;;;;;;1.33;0.90;;;;;;;17.94;32.24;99165.56;4182634;28;20083;-51
2021/05/04 03:33:34;;;;;;;1.73;1.02;;;;;;;17.79;32.40;99159.25;4179690;28;20036;-50
2021/05/04 03:35:34;;;;;;;0.57;0.57;;;;;;;17.86;32.29;99158.00;4179609;28;20084;-50
2021/05/04 03:37:35;;;;;;;1.85;1.05;;;;;;;17.79;32.26;99159.25;4179570;28;20076;-50
2021/05/04 03:39:36;;;;;;;1.35;1.05;;;;;;;17.81;32.26;99140.41;4176039;28;20045;-50
2021/05/04 03:41:36;;;;;;;2.40;0.90;;;;;;;17.79;32.30;99148.16;4169467;28;20051;-51
2021/05/04 03:43:37;;;;;;;3.08;1.02;;;;;;;17.75;32.32;99158.25;4174689;28;20044;-49
2021/05/04 03:45:37;;;;;;;1.35;1.20;;;;;;;17.82;32.53;99142.00;4178346;28;20802;-51
2021/05/04 03:47:42;;;;;;;1.58;1.00;;;;;;;17.70;32.51;99141.75;4172029;28;20473;-50
2021/05/04 03:49:43;;;;;;;1.50;0.85;;;;;;;17.76;32.51;99176.47;4175758;28;20734;-50
2021/05/04 03:51:43;;;;;;;3.58;0.80;;;;;;;17.73;32.24;99165.22;4178473;28;20037;-50
2021/05/04 03:53:43;;;;;;;3.42;1.55;;;;;;;17.69;32.38;99147.59;4176050;28;20042;-53
2021/05/04 03:55:45;;;;;;;2.20;1.00;;;;;;;17.58;32.57;99160.84;4173596;28;20033;-53
2021/05/04 03:57:46;;;;;;;2.83;1.08;;;;;;;17.57;32.58;99139.88;4173281;28;20056;-50
2021/05/04 03:59:46;;;;;;;1.92;1.45;;;;;;;17.65;32.69;99144.63;4175362;28;20033;-50
2021/05/04 04:01:47;;;;;;;2.45;1.55;;;;;;;17.64;32.75;99134.69;4170039;28;20410;-53
2021/05/04 04:03:48;;;;;;;2.17;1.40;;;;;;;17.57;32.36;99151.75;4175347;28;20042;-51
2021/05/04 04:05:49;;;;;;;2.80;1.30;;;;;;;17.58;32.63;99152.53;4171520;28;20041;-51
2021/05/04 04:07:49;;;;;;;3.47;1.70;;;;;;;17.69;32.58;99153.13;4173315;28;20476;-50
2021/05/04 04:09:50;;;;;;;3.75;1.88;;;;;;;17.67;32.46;99152.63;4171587;28;20037;-52
2021/05/04 04:11:50;;;;;;;3.83;1.98;;;;;;;17.70;32.65;99138.97;4171605;28;20029;-51
2021/05/04 04:13:51;;;;;;;2.30;1.35;;;;;;;17.60;32.67;99128.16;4183608;28;20036;-51
2021/05/04 04:15:51;;;;;;;2.10;1.50;;;;;;;17.55;32.71;99131.88;4171954;28;20037;-54
2021/05/04 04:17:51;;;;;;;6.60;1.98;;;;;;;17.63;32.70;99138.63;4174499;28;20045;-49
2021/05/04 04:19:52;;;;;;;6.68;1.90;;;;;;;17.55;32.76;99139.34;4178809;28;20044;-51
2021/05/04 04:21:53;;;;;;;3.33;1.25;;;;;;;17.53;32.64;99138.84;4174523;28;20037;-53
2021/05/04 04:23:53;;;;;;;2.58;1.42;;;;;;;17.53;32.94;99127.78;4178884;28;20420;-54
2021/05/04 04:25:54;;;;;;;4.35;1.73;;;;;;;17.53;33.00;99128.59;4176403;28;20099;-52
2021/05/04 04:27:55;;;;;;;4.35;1.75;;;;;;;17.60;33.07;99123.44;4179315;28;20040;-54
2021/05/04 04:29:55;;;;;;;4.35;1.77;;;;;;;17.45;32.63;99116.28;4183658;28;20028;-53
2021/05/04 04:31:56;;;;;;;6.20;2.53;;;;;;;17.47;32.83;99121.50;4177734;28;20407;-54
2021/05/04 04:33:56;;;;;;;6.35;2.20;;;;;;;17.51;32.71;99117.03;4175334;28;20421;-51
2021/05/04 04:35:56;;;;;;;3.90;1.90;;;;;;;17.46;32.83;99106.88;4176765;28;20044;-51
2021/05/04 04:37:57;;;;;;;4.28;2.13;;;;;;;17.48;32.85;99120.38;4174895;28;20045;-50
2021/05/04 04:39:57;;;;;;;7.47;2.20;;;;;;;17.30;33.28;99113.84;4191705;28;20098;-51
2021/05/04 04:41:58;;;;;;;3.47;1.88;;;;;;;17.50;32.82;99104.31;4175565;28;20029;-53
2021/05/04 04:43:59;;;;;;;7.43;2.45;;;;;;;17.46;32.88;99109.63;4181974;28;20039;-52
2021/05/04 04:45:59;;;;;;;3.97;1.90;;;;;;;17.42;32.97;99096.72;4178440;28;20037;-53
2021/05/04 04:48:00;;;;;;;6.25;2.63;;;;;;;17.49;32.77;99110.13;4174223;28;20545;-54
2021/05/04 04:50:00;;;;;;;3.80;1.92;;;;;;;17.51;32.75;99114.25;4176892;28;20036;-51
2021/05/04 04:52:01;;;;;;;5.55;1.88;;;;;;;17.41;32.88;99098.69;4179426;28;20044;-53
2021/05/04 04:54:03;;;;;;;5.93;2.33;;;;;;;17.42;32.79;99099.50;4174530;28;20048;-53
2021/05/04 04:56:03;;;;;;;5.15;2.25;;;;;;;17.35;32.89;99097.19;4174231;28;20033;-50
2021/05/04 04:58:04;;;;;;;4.72;1.92;;;;;;;17.37;32.91;99108.72;4177999;28;20045;-52
2021/05/04 05:00:05;;;;;;;5.47;2.17;;;;;;;17.27;33.11;99114.47;4179669;28;20086;-53
2021/05/04 05:02:05;;;;;;;4.63;1.90;;;;;;;17.34;32.99;99098.28;4170353;28;20438;-51
2021/05/04 05:04:06;;;;;;;8.18;2.45;;;;;;;17.41;33.02;99098.69;4175737;28;20044;-51
2021/05/04 05:06:06;;;;;;;3.85;1.95;;;;;;;17.35;33.06;99099.09;4172295;28;20041;-52
2021/05/04 05:08:07;;;;;;;4.10;2.30;;;;;;;17.31;32.95;99096.16;4176551;28;20032;-53
2021/05/04 05:10:08;;;;;;;8.45;2.72;;;;;;;17.34;32.86;99098.28;4177527;28;20025;-53
2021/05/04 05:12:09;;;;;;;5.78;2.30;;;;;;;17.31;33.03;99101.69;4175218;28;20033;-55
2021/05/04 05:14:09;;;;;;;5.20;2.67;;;;;;;17.41;33.04;99089.56;4174486;28;20029;-54
2021/05/04 05:16:11;;;;;;;5.30;2.72;;;;;;;17.41;32.99;99095.94;4177024;28;20029;-52
2021/05/04 05:18:12;;;;;;;5.60;2.22;;;;;;;17.16;32.81;99074.38;4176152;28;20043;-55
2021/05/04 05:20:13;;;;;;;6.07;2.38;;;;;;;17.33;32.96;99102.19;4175776;28;20708;-53
2021/05/04 05:22:14;;;;;;;6.88;2.25;;;;;;;17.32;32.60;99075.69;4180161;28;20026;-53
2021/05/04 05:24:14;;;;;;;9.93;2.92;;;;;;;17.46;32.89;99106.06;4173241;28;20025;-53
2021/05/04 05:26:17;;;;;;;9.10;3.00;;;;;;;17.43;32.95;99090.09;4179036;28;20471;-53
2021/05/04 05:28:18;;;;;;;6.70;2.70;;;;;;;17.42;32.97;99097.53;4191499;28;20190;-54
2021/05/04 05:30:19;;;;;;;5.50;2.45;;;;;;;17.43;33.00;99096.41;4174861;28;20767;-53
2021/05/04 05:32:19;;;;;;;6.90;2.65;;;;;;;17.28;32.92;99091.25;4176046;28;20401;-50
2021/05/04 05:34:20;;;;;;;8.93;3.20;;;;;;;17.38;32.98;99115.91;4168876;28;20372;-53
2021/05/04 05:36:20;;;;;;;4.95;2.70;;;;;;;17.40;33.04;99085.97;4168199;28;20431;-51
2021/05/04 05:38:21;;;;;;;8.88;2.92;;;;;;;17.46;32.90;99090.25;4176421;28;20492;-54
2021/05/04 05:40:21;;;;;;;8.35;3.17;;;;;;;17.44;32.76;99084.25;4172170;28;20025;-52
2021/05/04 05:42:22;;;;;;;8.93;3.00;;;;;;;17.31;32.99;99098.91;4175536;28;20040;-50
2021/05/04 05:44:22;;;;;;;5.82;2.70;;;;;;;17.29;32.97;99090.94;4171469;28;20029;-52
2021/05/04 05:46:23;;;;;;;6.25;2.72;;;;;;;17.32;32.95;99083.13;4172047;28;20033;-50
2021/05/04 05:48:24;;;;;;;5.43;2.65;;;;;;;17.32;33.03;99083.13;4176811;28;20383;-53
2021/05/04 05:50:24;;;;;;;8.45;2.85;;;;;;;17.30;33.14;99091.72;4173222;28;20060;-54
2021/05/04 05:52:24;;;;;;;8.77;3.25;;;;;;;17.28;33.04;99105.88;4182949;28;20036;-53
2021/05/04 05:54:26;;;;;;;7.43;3.22;;;;;;;17.22;32.91;99101.59;4178866;28;20052;-51
2021/05/04 05:56:26;;;;;;;7.65;3.58;;;;;;;17.27;32.91;99093.19;4174380;28;20040;-52
2021/05/04 05:58:27;;;;;;;7.05;2.97;;;;;;;17.42;33.32;99099.50;4173856;28;20021;-53
2021/05/04 06:00:27;;;;;;;9.80;2.78;;;;;;;17.42;32.85;99078.19;4171979;28;20076;-52
2021/05/04 06:02:27;;;;;;;9.40;2.95;;;;;;;17.39;32.83;99086.28;4168307;28;20164;-52
2021/05/04 06:04:28;;;;;;;9.68;3.45;;;;;;;17.37;33.06;99094.09;4169787;28;20093;-51
2021/05/04 06:06:28;;;;;;;6.25;2.88;;;;;;;17.34;33.02;99103.00;4169112;28;20479;-52
2021/05/04 06:08:29;;;;;;;6.22;2.72;;;;;;;17.28;33.05;99080.19;4168628;28;20033;-54
2021/05/04 06:10:30;;;;;;;7.35;2.70;;;;;;;17.24;33.23;99093.81;4171188;28;20053;-49
2021/05/04 06:12:30;;;;;;;6.10;2.78;;;;;;;17.28;33.02;99086.53;4171889;28;20033;-50
2021/05/04 06:14:30;;;;;;;8.50;2.83;;;;;;;17.29;33.14;99104.75;4161561;28;20387;-51
2021/05/04 06:16:31;;;;;;;7.10;2.97;;;;;;;17.30;33.01;99111.09;4168042;28;20037;-52
2021/05/04 06:18:32;;;;;;;6.00;2.10;;;;;;;17.39;33.05;99102.88;4167533;28;20037;-49
2021/05/04 06:20:33;;;;;;;7.85;3.17;;;;;;;17.33;33.18;99107.72;4168054;28;20110;-54
2021/05/04 06:22:34;;;;;;;5.88;2.65;;;;;;;17.36;33.12;99107.09;4152913;28;20029;-55
2021/05/04 06:24:34;;;;;;;4.75;2.17;;;;;;;17.37;33.08;99116.22;4168188;28;20083;-52
2021/05/04 06:26:35;;;;;;;8.07;2.92;;;;;;;17.34;33.18;99109.34;4171355;28;20048;-51
2021/05/04 06:28:35;;;;;;;7.78;2.95;;;;;;;17.36;33.21;99117.34;4172592;28;20037;-50
2021/05/04 06:30:37;;;;;;;6.50;2.40;;;;;;;17.38;33.05;99104.00;4169119;28;20048;-53
2021/05/04 06:32:39;;;;;;;6.07;2.83;;;;;;;17.44;33.03;99095.31;4172925;28;20037;-50
2021/05/04 06:34:40;;;;;;;8.98;3.10;;;;;;;17.49;33.02;99112.88;4168498;28;20087;-52
2021/05/04 06:36:41;;;;;;;10.13;2.80;;;;;;;17.59;32.78;99109.94;4170655;28;20594;-52
2021/05/04 06:38:41;;;;;;;6.53;2.63;;;;;;;17.56;33.22;99102.25;4168551;28;20036;-51
2021/05/04 06:40:43;;;;;;;6.18;2.63;;;;;;;17.56;33.06;99116.91;4166516;28;20034;-50
2021/05/04 06:42:44;;;;;;;6.68;2.92;;;;;;;17.68;32.87;99112.78;4170069;28;21056;-53
2021/05/04 06:44:45;;;;;;;5.75;2.72;;;;;;;17.67;33.17;99124.97;4166532;28;20040;-51
2021/05/04 06:46:45;;;;;;;9.02;2.60;;;;;;;17.71;32.98;99110.19;4168949;28;20037;-51
2021/05/04 06:48:45;;;;;;;5.68;2.38;;;;;;;17.71;33.05;99104.66;4164409;28;20080;-50
2021/05/04 06:50:46;;;;;;;7.00;2.75;;;;;;;17.70;33.10;99111.31;4169594;28;20033;-55
2021/05/04 06:52:46;;;;;;;9.02;2.72;;;;;;;17.77;33.20;99120.00;4165778;28;20052;-53
2021/05/04 06:54:47;;;;;;;5.13;2.85;;;;;;;17.78;33.21;99105.03;4172206;28;20036;-51
2021/05/04 06:56:47;;;;;;;6.97;2.72;;;;;;;17.82;33.07;99114.34;4169961;28;20365;-50
2021/05/04 06:58:48;;;;;;;8.07;2.72;;;;;;;17.74;33.25;99106.78;4172150;28;20067;-55
2021/05/04 07:00:48;;;;;;;6.40;2.90;;;;;;;17.82;33.12;99136.47;4170699;28;20024;-54
2021/05/04 07:02:48;;;;;;;7.22;2.67;;;;;;;17.91;33.09;99106.09;4170860;28;20025;-52
2021/05/04 07:04:49;;;;;;;9.45;3.25;;;;;;;17.89;33.11;99102.84;4171484;28;20041;-53
2021/05/04 07:06:49;;;;;;;7.15;2.83;;;;;;;17.84;33.18;99102.94;4171064;28;20029;-51
2021/05/04 07:08:50;;;;;;;7.35;2.90;;;;;;;17.89;33.17;99091.78;4170832;28;20558;-50
2021/05/04 07:10:50;;;;;;;7.90;2.58;;;;;;;17.95;33.14;99111.81;4169318;28;20029;-51
2021/05/04 07:12:50;;;;;;;9.35;3.30;;;;;;;17.99;33.17;99096.22;4170667;28;20033;-51
2021/05/04 07:14:51;;;;;;;6.18;2.65;;;;;;;17.97;33.34;99102.06;4169594;28;20383;-51
2021/05/04 07:16:51;;;;;;;6.75;2.83;;;;;;;18.03;33.46;99107.47;4169961;28;20037;-55
2021/05/04 07:18:52;;;;;;;10.32;3.50;;;;;;;17.99;33.25;99104.53;4165024;28;20450;-53
2021/05/04 07:20:52;;;;;;;8.13;2.95;;;;;;;17.98;33.21;99117.56;4166588;28;20029;-50
2021/05/04 07:22:55;;;;;;;8.77;2.47;;;;;;;18.04;33.29;99111.88;4171090;28;20091;-51
2021/05/04 07:24:55;;;;;;;7.22;3.05;;;;;;;17.94;33.81;99116.53;4164404;28;20044;-58
2021/05/04 07:26:56;;;;;;;8.90;2.80;;;;;;;17.99;34.13;99127.47;4167213;28;20452;-53
2021/05/04 07:28:56;;;;;;;12.35;2.67;;;;;;;18.11;34.33;99126.09;4165482;28;20059;-50
2021/05/04 07:30:57;;;;;;;9.27;2.40;;;;;;;18.18;34.02;99119.00;4164950;28;20119;-53
2021/05/04 07:33:01;;;;;;;25.17;3.38;;;;;;;18.14;34.44;99126.28;4168742;28;20037;-58
2021/05/04 07:35:01;;;;;;;9.90;3.40;;;;;;;18.25;34.41;99126.03;4169805;28;20045;-52
2021/05/04 07:37:02;;;;;;;9.50;2.63;;;;;;;18.29;34.38;99129.78;4169207;28;20099;-54
2021/05/04 07:39:03;;;;;;;9.63;2.80;;;;;;;18.39;34.40;99125.97;4170933;28;20053;-50
2021/05/04 07:41:05;;;;;;;12.43;2.92;;;;;;;18.40;34.55;99117.34;4168380;28;20107;-54
2021/05/04 07:43:05;;;;;;;10.02;3.63;;;;;;;18.48;34.49;99122.09;4169467;28;20057;-60
2021/05/04 07:45:07;;;;;;;9.35;2.85;;;;;;;18.58;34.14;99120.19;4169795;28;20029;-59
2021/05/04 07:47:07;;;;;;;9.43;2.92;;;;;;;18.62;34.10;99119.22;4167913;28;20087;-58
2021/05/04 07:49:11;;;;;;;13.77;2.60;;;;;;;18.61;34.48;99111.25;4167341;28;20235;-60
2021/05/04 07:51:12;;;;;;;9.88;2.05;;;;;;;18.71;34.26;99122.84;4170365;28;20079;-49
2021/05/04 07:53:13;;;;;;;5.18;2.05;;;;;;;18.77;34.41;99120.78;4166010;28;20496;-52
2021/05/04 07:55:14;;;;;;;9.25;2.83;;;;;;;18.79;34.44;99121.25;4171855;28;20387;-53
2021/05/04 07:57:15;;;;;;;8.05;3.03;;;;;;;18.83;34.28;99119.50;4171260;28;20040;-53
2021/05/04 07:59:16;;;;;;;7.65;2.45;;;;;;;18.81;34.16;99110.66;4174768;28;20033;-53
2021/05/04 08:01:16;;;;;;;12.18;2.95;;;;;;;18.89;34.26;99129.28;4172210;28;20036;-56
2021/05/04 08:03:16;;;;;;;8.85;2.40;;;;;;;18.97;34.17;99124.91;4170267;28;20030;-54
2021/05/04 08:05:17;;;;;;;9.07;2.53;;;;;;;18.95;34.23;99115.28;4180940;28;20033;-55
2021/05/04 08:07:18;;;;;;;8.77;2.50;;;;;;;19.01;34.22;99120.34;4172390;28;20040;-56
2021/05/04 08:09:18;;;;;;;4.85;2.50;;;;;;;19.05;34.21;99134.41;4171396;28;20094;-60
2021/05/04 08:11:19;;;;;;;7.50;2.35;;;;;;;19.11;34.10;99122.03;4174225;28;20760;-55
2021/05/04 08:13:20;;;;;;;6.47;2.50;;;;;;;19.12;34.20;99100.66;4171934;28;20037;-56
2021/05/04 08:15:22;;;;;;;9.63;2.67;;;;;;;19.12;34.04;99120.06;4171022;28;20032;-59
2021/05/04 08:17:26;;;;;;;3.80;2.03;;;;;;;19.21;34.17;99123.69;4173840;28;20423;-53
2021/05/04 08:19:26;;;;;;;8.48;3.08;;;;;;;19.21;34.08;99123.69;4169762;28;20033;-52
2021/05/04 08:21:33;;;;;;;7.38;2.30;;;;;;;19.29;33.71;99127.63;4174670;28;20090;-49
2021/05/04 08:23:33;;;;;;;6.88;2.25;;;;;;;19.28;33.32;99123.19;4171721;28;20032;-52
2021/05/04 08:25:33;;;;;;;7.60;2.65;;;;;;;19.20;33.15;99106.25;4171310;28;20545;-54
2021/05/04 08:27:34;;;;;;;13.05;2.78;;;;;;;19.23;33.14;99118.63;4177716;28;20051;-54
2021/05/04 08:29:34;;;;;;;6.53;2.90;;;;;;;19.22;33.14;99115.03;4168464;28;20040;-53
2021/05/04 08:31:35;;;;;;;7.80;2.28;;;;;;;19.21;33.21;99104.28;4170596;28;20033;-52
2021/05/04 08:33:35;;;;;;;6.72;2.95;;;;;;;19.06;33.51;99106.34;4174368;28;20045;-51
2021/05/04 08:35:36;;;;;;;7.60;2.72;;;;;;;19.07;34.01;99107.16;4170657;28;20412;-53
2021/05/04 08:37:36;;;;;;;6.22;2.45;;;;;;;19.19;33.99;99107.38;4169387;28;20025;-55
2021/05/04 08:39:37;;;;;;;7.47;2.55;;;;;;;19.30;33.79;99098.75;4165856;28;20048;-49
2021/05/04 08:41:37;;;;;;;7.32;2.70;;;;;;;19.37;33.62;99094.34;4169460;28;20371;-49
2021/05/04 08:43:38;;;;;;;5.38;2.28;;;;;;;19.45;33.89;99108.53;4165914;28;20041;-51
2021/05/04 08:45:44;;;;;;;6.47;2.45;;;;;;;19.50;33.74;99111.16;4168157;28;20512;-59
2021/05/04 08:47:50;;;;;;;9.18;2.05;;;;;;;19.55;33.93;99111.81;4168731;28;20285;-59
2021/05/04 08:49:51;;;;;;;8.45;2.15;;;;;;;19.58;33.72;99100.03;4164328;28;20466;-59
2021/05/04 08:51:51;;;;;;;5.55;2.08;;;;;;;19.64;33.79;99092.38;4169239;28;20060;-56
2021/05/04 08:53:52;;;;;;;6.75;2.03;;;;;;;19.69;33.74;99096.94;4168204;28;20417;-49
2021/05/04 08:55:52;;;;;;;7.35;1.83;;;;;;;19.77;34.00;99096.97;4166332;28;20062;-54
2021/05/04 08:57:53;;;;;;;4.18;1.95;;;;;;;19.74;34.10;99083.72;4167800;28;20033;-52
2021/05/04 08:59:53;;;;;;;5.65;2.15;;;;;;;19.83;34.04;99086.47;4163716;28;20531;-53
2021/05/04 09:01:53;;;;;;;5.53;2.17;;;;;;;19.86;33.95;99105.28;4167794;28;20033;-51
2021/05/04 09:04:00;;;;;;;3.42;1.40;;;;;;;19.93;33.97;99096.47;4167898;28;20146;-51
2021/05/04 09:06:12;;;;;;;7.00;2.17;;;;;;;19.94;33.88;99098.09;4179743;28;20370;-52
2021/05/04 09:10:50;;;;;;;6.63;1.83;;;;;;;20.02;33.97;99107.56;4166233;28;20048;-50
2021/05/04 09:13:00;;;;;;;4.30;2.20;;;;;;;20.04;33.73;99127.50;4168178;28;20434;-52
2021/05/04 09:15:20;;;;;;;3.72;1.88;;;;;;;20.07;33.53;99137.94;4169023;28;20029;-54
2021/05/04 09:17:31;;;;;;;3.65;1.63;;;;;;;20.10;33.54;99140.06;4172882;28;20498;-52
2021/05/04 09:21:33;;;;;;;5.00;2.20;;;;;;;20.11;33.13;99152.78;4160550;28;20347;-53
2021/05/04 09:23:35;;;;;;;4.82;1.98;;;;;;;20.06;33.15;99148.22;4171803;28;20112;-54
2021/05/04 09:25:38;;;;;;;6.57;1.70;;;;;;;20.11;32.92;99150.84;4169498;28;20040;-54
2021/05/04 09:27:57;;;;;;;5.68;1.88;;;;;;;20.13;32.88;99153.31;4171420;28;20045;-54
2021/05/04 09:30:01;;;;;;;4.78;1.83;;;;;;;20.09;32.79;99164.22;4169884;28;20029;-53
2021/05/04 09:32:11;;;;;;;5.50;2.28;;;;;;;20.18;32.75;99167.00;4167761;28;20487;-54
2021/05/04 09:34:14;;;;;;;5.57;2.00;;;;;;;20.17;32.84;99172.91;4175593;28;20127;-54